Aviation Digital Data Service (ADDS)

Output produced by METARs form (1921 UTC 23 April 2018)
found at http://www.aviationweather.gov/adds/metars/
 
KDUJ 231853Z AUTO 14013G18KT 120V190 10SM CLR 19/02 A3028 RMK AO2 SLP254 T01890022 TSNO
KDUJ 231753Z AUTO 15009G18KT 120V190 10SM CLR 19/03 A3029 RMK AO2 SLP257 T01890028 10189 20083 58018 TSNO
KDUJ 231653Z AUTO 14007G18KT 10SM CLR 18/03 A3031 RMK AO2 SLP265 T01780028 TSNO
KDUJ 231553Z AUTO 13009G17KT 10SM CLR 17/03 A3033 RMK AO2 SLP270 T01720033 TSNO
KDUJ 231453Z AUTO VRB04KT 10SM CLR 16/02 A3035 RMK AO2 SLP277 T01560022 58003 TSNO
KDUJ 231353Z AUTO 13010G14KT 10SM CLR 13/01 A3036 RMK AO2 SLP281 T01330011 TSNO
KDUJ 231253Z AUTO 11013G16KT 10SM CLR 11/M01 A3036 RMK AO2 SLP281 T01061006 TSNO
KDUJ 231153Z AUTO 10009KT 10SM CLR 08/M03 A3036 RMK AO2 SLP281 T00831033 10083 20050 53007 TSNO
KDUJ 231053Z AUTO 09008KT 10SM CLR 06/M06 A3034 RMK AO2 SLP276 T00561056 TSNO
KDUJ 230953Z AUTO 10008KT 10SM CLR 06/M06 A3033 RMK AO2 SLP272 T00561061 TSNO
KDUJ 230853Z AUTO 10008KT 10SM CLR 06/M07 A3033 RMK AO2 SLP274 T00611067 50002 TSNO
KDUJ 230753Z AUTO 09006KT 10SM CLR 06/M07 A3034 RMK AO2 SLP275 T00561067 TSNO
KDUJ 230653Z AUTO 10005KT 10SM CLR 06/M06 A3033 RMK AO2 SLP273 T00611056 TSNO
KDUJ 230553Z AUTO 08006KT 10SM CLR 07/M05 A3033 RMK AO2 SLP272 T00671050 10150 20067 50002 TSNO
KDUJ 230453Z AUTO 10006KT 10SM CLR 08/M05 A3033 RMK AO2 SLP273 T00781050 401830006 TSNO
KDUJ 230353Z AUTO 10004KT 10SM CLR 09/M06 A3033 RMK AO2 SLP271 T00891056 TSNO
KDUJ 230253Z AUTO 12007KT 10SM CLR 10/M05 A3032 RMK AO2 SLP270 T01001050 50010 TSNO
KDUJ 230153Z AUTO 12006KT 10SM CLR 11/M06 A3032 RMK AO2 SLP272 T01111061 TSNO
KDUJ 230053Z AUTO 11004KT 10SM CLR 13/M08 A3031 RMK AO2 SLP266 T01281078 TSNO
KDUJ 222353Z AUTO 13004KT 10SM CLR 14/M07 A3029 RMK AO2 SLP262 T01441067 10183 20144 53001 TSNO
KDUJ 222253Z AUTO 13004KT 10SM CLR 17/M07 A3028 RMK AO2 SLP258 T01671072 TSNO
KDUJ 222153Z AUTO 06005KT 10SM CLR 18/M07 A3028 RMK AO2 SLP258 T01781072 TSNO
KDUJ 222053Z AUTO 00000KT 10SM CLR 17/M08 A3029 RMK AO2 SLP261 T01721078 56014 TSNO
KDUJ 221953Z AUTO 03005KT 10SM CLR 17/M07 A3030 RMK AO2 SLP263 T01721072 TSNO